createdAt,value
2022-10-15T00:01:47.832Z,20.30
2022-10-15T00:04:16.807Z,17.10
2022-10-15T00:06:44.979Z,15.00
2022-10-15T00:09:15.019Z,18.40
2022-10-15T00:11:45.915Z,17.50
2022-10-15T00:14:13.889Z,13.50
2022-10-15T00:16:42.111Z,15.70
2022-10-15T00:19:10.610Z,15.50
2022-10-15T00:21:38.994Z,15.10
2022-10-15T00:24:07.735Z,15.30
2022-10-15T00:26:35.940Z,16.80
2022-10-15T00:29:04.767Z,15.50
2022-10-15T00:31:35.686Z,15.70
2022-10-15T00:34:04.034Z,15.00
2022-10-15T00:36:38.638Z,16.80
2022-10-15T00:39:07.969Z,15.10
2022-10-15T00:41:43.302Z,12.30
2022-10-15T00:44:26.767Z,13.20
2022-10-15T00:46:57.250Z,13.60
2022-10-15T00:49:55.525Z,15.60
2022-10-15T00:52:32.515Z,13.10
2022-10-15T00:55:41.801Z,13.40
2022-10-15T00:58:15.919Z,17.00
2022-10-15T01:00:44.355Z,13.20
2022-10-15T01:03:12.962Z,20.90
2022-10-15T01:05:48.009Z,17.60
2022-10-15T01:08:17.585Z,12.90
2022-10-15T01:11:07.541Z,13.90
2022-10-15T01:13:55.145Z,17.00
2022-10-15T01:16:41.387Z,13.50
2022-10-15T01:19:43.327Z,16.20
2022-10-15T01:22:21.885Z,15.50
2022-10-15T01:24:53.992Z,14.70
2022-10-15T01:27:43.924Z,12.80
2022-10-15T01:30:21.068Z,16.00
2022-10-15T01:33:05.673Z,14.10
2022-10-15T01:35:52.528Z,17.40
2022-10-15T01:38:36.723Z,16.10
2022-10-15T01:41:31.225Z,17.20
2022-10-15T01:44:05.238Z,16.00
2022-10-15T01:47:05.676Z,11.00
2022-10-15T01:49:39.243Z,11.90
2022-10-15T01:52:13.919Z,11.60
2022-10-15T01:54:45.351Z,14.00
2022-10-15T01:57:15.323Z,14.10
2022-10-15T01:59:44.805Z,12.20
2022-10-15T02:02:13.876Z,19.90
2022-10-15T02:04:42.062Z,12.40
2022-10-15T02:07:31.271Z,18.90
2022-10-15T02:10:18.644Z,10.80
2022-10-15T02:13:10.815Z,13.70
2022-10-15T02:15:51.111Z,14.10
2022-10-15T02:18:24.606Z,16.70
2022-10-15T02:21:07.935Z,13.50
2022-10-15T02:23:49.847Z,13.90
2022-10-15T02:26:19.904Z,12.30
2022-10-15T02:28:55.216Z,10.40
2022-10-15T02:33:55.974Z,13.40
2022-10-15T02:36:24.807Z,10.40
2022-10-15T02:38:56.864Z,18.50
2022-10-15T02:41:29.022Z,12.60
2022-10-15T02:43:57.971Z,11.40
2022-10-15T02:46:26.146Z,12.70
2022-10-15T02:48:54.197Z,15.70
2022-10-15T02:51:22.330Z,18.20
2022-10-15T02:53:50.330Z,14.90
2022-10-15T02:56:20.383Z,13.00
2022-10-15T02:58:49.008Z,13.10
2022-10-15T03:01:17.197Z,14.20
2022-10-15T03:03:45.886Z,12.40
2022-10-15T03:06:14.783Z,14.10
2022-10-15T03:08:44.495Z,10.40
2022-10-15T03:11:12.708Z,11.00
2022-10-15T03:13:41.375Z,13.40
2022-10-15T03:16:11.177Z,12.60
2022-10-15T03:18:40.832Z,11.00
2022-10-15T03:21:12.961Z,9.50
2022-10-15T03:23:41.238Z,12.90
2022-10-15T03:26:14.117Z,12.60
2022-10-15T03:28:42.915Z,15.40
2022-10-15T03:31:11.222Z,15.40
2022-10-15T03:33:39.422Z,11.00
2022-10-15T03:36:08.354Z,13.10
2022-10-15T03:38:37.302Z,11.10
2022-10-15T03:41:08.031Z,10.60
2022-10-15T03:43:42.772Z,13.90
2022-10-15T03:46:11.637Z,10.70
2022-10-15T03:48:42.950Z,11.10
2022-10-15T03:51:18.171Z,12.90
2022-10-15T03:53:51.418Z,14.20
2022-10-15T03:56:21.421Z,12.50
2022-10-15T03:58:52.544Z,10.30
2022-10-15T04:01:20.702Z,13.90
2022-10-15T04:03:54.157Z,9.30
2022-10-15T04:06:22.654Z,16.20
2022-10-15T04:11:26.478Z,13.40
2022-10-15T04:14:02.862Z,17.30
2022-10-15T04:16:32.831Z,13.50
2022-10-15T04:19:08.667Z,42.90
2022-10-15T04:21:39.510Z,20.20
2022-10-15T04:24:09.227Z,16.90
2022-10-15T04:26:40.424Z,22.70
2022-10-15T04:29:09.109Z,21.20
2022-10-15T04:31:37.887Z,23.70
2022-10-15T04:34:06.691Z,19.70
2022-10-15T04:36:35.140Z,23.10
2022-10-15T04:39:19.923Z,19.20
2022-10-15T04:41:49.520Z,21.00
2022-10-15T04:44:27.713Z,18.80
2022-10-15T04:46:59.519Z,26.10
2022-10-15T04:49:49.473Z,25.30
2022-10-15T04:52:38.198Z,27.20
2022-10-15T04:55:12.403Z,25.00
2022-10-15T04:57:40.593Z,30.70
2022-10-15T05:00:10.351Z,27.30
2022-10-15T05:02:44.187Z,24.60
2022-10-15T05:05:29.742Z,17.00
2022-10-15T05:08:01.554Z,21.00
2022-10-15T05:10:30.217Z,23.70
2022-10-15T05:12:59.127Z,26.00
2022-10-15T05:15:32.661Z,16.30
2022-10-15T05:18:01.193Z,14.90
2022-10-15T05:20:34.789Z,17.30
2022-10-15T05:23:04.483Z,17.00
2022-10-15T05:25:33.716Z,17.10
2022-10-15T05:28:01.912Z,19.00
2022-10-15T05:30:30.200Z,22.10
2022-10-15T05:33:00.011Z,15.00
2022-10-15T05:35:28.240Z,23.60
2022-10-15T05:38:00.439Z,16.20
2022-10-15T05:40:28.646Z,17.80
2022-10-15T05:43:04.946Z,15.50
2022-10-15T05:45:33.144Z,15.80
2022-10-15T05:48:06.124Z,12.90
2022-10-15T05:50:34.427Z,15.10
2022-10-15T05:53:05.819Z,15.30
2022-10-15T05:55:48.670Z,14.40
2022-10-15T05:58:16.913Z,19.70
2022-10-15T06:00:45.233Z,19.10
2022-10-15T06:03:14.903Z,13.40
2022-10-15T06:05:43.036Z,16.30
2022-10-15T06:08:11.592Z,14.70
2022-10-15T06:10:40.048Z,16.00
2022-10-15T06:13:10.036Z,12.90
2022-10-15T06:15:58.998Z,17.30
2022-10-15T06:18:27.642Z,14.50
2022-10-15T06:21:00.686Z,14.80
2022-10-15T06:23:28.945Z,17.20
2022-10-15T06:25:59.373Z,17.90
2022-10-15T06:28:28.367Z,14.00
2022-10-15T06:31:01.799Z,13.90
2022-10-15T06:33:32.798Z,14.10
2022-10-15T06:36:07.260Z,19.60
2022-10-15T06:38:36.176Z,14.60
2022-10-15T06:41:05.989Z,14.10
2022-10-15T06:43:35.412Z,12.20
2022-10-15T06:46:07.495Z,19.50
2022-10-15T06:48:37.698Z,17.60
2022-10-15T06:51:05.967Z,18.30
2022-10-15T06:53:34.467Z,17.20
2022-10-15T06:56:04.271Z,14.80
2022-10-15T06:58:37.595Z,21.00
2022-10-15T07:01:06.822Z,18.80
2022-10-15T07:03:36.241Z,16.40
2022-10-15T07:06:06.872Z,15.10
2022-10-15T07:08:36.100Z,21.20
2022-10-15T07:11:09.344Z,19.70
2022-10-15T07:13:40.093Z,16.50
2022-10-15T07:16:11.862Z,18.30
2022-10-15T07:18:40.462Z,20.60
2022-10-15T07:23:44.225Z,19.20
2022-10-15T07:26:13.531Z,20.10
2022-10-15T07:28:44.688Z,22.80
2022-10-15T07:31:13.643Z,25.90
2022-10-15T07:33:43.957Z,22.80
2022-10-15T07:36:13.258Z,29.30
2022-10-15T07:38:47.756Z,23.90
2022-10-15T07:41:16.243Z,21.90
2022-10-15T07:43:44.691Z,22.30
2022-10-15T07:46:15.525Z,34.40
2022-10-15T07:48:43.866Z,37.10
2022-10-15T07:51:14.444Z,58.20
2022-10-15T07:53:45.737Z,52.00
2022-10-15T07:56:15.942Z,48.10
2022-10-15T07:58:51.402Z,51.60
2022-10-15T08:01:21.234Z,58.40
2022-10-15T08:03:49.732Z,54.80
2022-10-15T08:06:19.997Z,58.30
2022-10-15T08:08:48.222Z,77.20
2022-10-15T08:11:17.104Z,53.60
2022-10-15T08:13:49.560Z,66.80
2022-10-15T08:16:19.772Z,58.10
2022-10-15T08:18:58.392Z,62.10
2022-10-15T08:21:29.207Z,58.40
2022-10-15T08:23:57.365Z,40.00
2022-10-15T08:26:35.012Z,50.30
2022-10-15T08:29:05.218Z,56.20
2022-10-15T08:31:34.559Z,44.70
2022-10-15T08:34:03.225Z,38.80
2022-10-15T08:36:33.739Z,29.40
2022-10-15T08:39:02.150Z,22.80
2022-10-15T08:41:56.208Z,22.40
2022-10-15T08:44:34.916Z,21.90
2022-10-15T08:47:05.197Z,20.30
2022-10-15T08:49:42.837Z,26.90
2022-10-15T08:52:42.737Z,22.60
2022-10-15T08:55:21.711Z,27.00
2022-10-15T08:57:58.094Z,31.60
2022-10-15T09:00:30.518Z,33.70
2022-10-15T09:03:05.366Z,32.30
2022-10-15T09:05:57.741Z,32.10
2022-10-15T09:08:48.457Z,30.20
2022-10-15T09:11:49.580Z,41.40
2022-10-15T09:14:26.871Z,26.00
2022-10-15T09:16:55.490Z,23.60
2022-10-15T09:19:26.137Z,27.00
2022-10-15T09:21:55.031Z,23.90
2022-10-15T09:24:26.269Z,31.30
2022-10-15T09:27:09.251Z,31.00
2022-10-15T09:29:58.327Z,25.50
2022-10-15T09:32:49.489Z,24.40
2022-10-15T09:35:45.293Z,25.60
2022-10-15T09:38:37.116Z,25.90
2022-10-15T09:41:43.349Z,23.00
2022-10-15T09:44:17.428Z,27.40
2022-10-15T09:46:51.712Z,22.70
2022-10-15T09:49:24.875Z,20.80
2022-10-15T09:52:19.362Z,25.80
2022-10-15T09:54:56.462Z,19.70
2022-10-15T09:57:26.588Z,18.70
2022-10-15T10:00:02.049Z,19.70
2022-10-15T10:02:44.199Z,18.90
2022-10-15T10:05:30.403Z,18.40
2022-10-15T10:08:27.903Z,16.50
2022-10-15T10:11:14.410Z,17.10
2022-10-15T10:14:01.030Z,19.40
2022-10-15T10:16:30.487Z,17.00
2022-10-15T10:19:16.295Z,15.90
2022-10-15T10:21:46.763Z,17.10
2022-10-15T10:24:41.776Z,16.10
2022-10-15T10:27:29.436Z,16.30
2022-10-15T10:30:01.624Z,15.90
2022-10-15T10:32:33.149Z,17.60
2022-10-15T10:35:25.801Z,16.70
2022-10-15T10:37:56.544Z,18.20
2022-10-15T10:40:37.753Z,17.90
2022-10-15T10:43:17.899Z,15.40
2022-10-15T10:46:01.662Z,20.80
2022-10-15T10:48:44.040Z,23.80
2022-10-15T10:51:19.452Z,23.40
2022-10-15T10:53:57.957Z,24.00
2022-10-15T10:56:38.816Z,18.00
2022-10-15T10:59:23.497Z,18.60
2022-10-15T11:01:53.002Z,17.20
2022-10-15T11:04:30.559Z,16.90
2022-10-15T11:07:06.176Z,20.00
2022-10-15T11:09:56.449Z,22.00
2022-10-15T11:12:43.153Z,21.20
2022-10-15T11:15:48.945Z,18.90
2022-10-15T11:18:38.050Z,23.60
2022-10-15T11:21:14.724Z,15.30
2022-10-15T11:24:05.866Z,14.40
2022-10-15T11:27:09.858Z,14.20
2022-10-15T11:30:15.034Z,16.30
2022-10-15T11:33:13.352Z,17.50
2022-10-15T11:35:53.720Z,18.00
2022-10-15T11:38:52.720Z,19.40
2022-10-15T11:41:40.939Z,17.50
2022-10-15T11:44:19.717Z,14.00
2022-10-15T11:46:59.322Z,16.80
2022-10-15T11:50:02.454Z,19.30
2022-10-15T11:52:55.519Z,17.90
2022-10-15T11:55:29.087Z,15.00
2022-10-15T11:58:02.408Z,17.90
2022-10-15T12:00:38.616Z,15.70
2022-10-15T12:03:26.587Z,15.70
2022-10-15T12:05:55.997Z,20.60
2022-10-15T12:08:28.642Z,15.20
2022-10-15T12:11:03.827Z,15.20
2022-10-15T12:13:48.578Z,22.00
2022-10-15T12:16:26.850Z,22.90
2022-10-15T12:19:08.001Z,22.00
2022-10-15T12:21:39.940Z,16.60
2022-10-15T12:24:44.838Z,14.50
2022-10-15T12:27:19.712Z,17.70
2022-10-15T12:29:57.142Z,17.70
2022-10-15T12:32:36.085Z,17.10
2022-10-15T12:37:51.088Z,16.10
2022-10-15T12:40:28.377Z,16.00
2022-10-15T12:43:05.503Z,14.40
2022-10-15T12:45:40.458Z,16.80
2022-10-15T12:48:09.428Z,17.10
2022-10-15T12:50:41.142Z,16.70
2022-10-15T12:53:28.953Z,15.70
2022-10-15T12:56:13.731Z,18.10
2022-10-15T12:58:53.396Z,14.00
2022-10-15T13:01:22.334Z,16.60
2022-10-15T13:03:53.323Z,15.20
2022-10-15T13:06:21.453Z,17.20
2022-10-15T13:08:55.279Z,16.10
2022-10-15T13:11:44.264Z,14.70
2022-10-15T13:14:21.791Z,15.60
2022-10-15T13:16:50.823Z,17.60
2022-10-15T13:19:27.459Z,14.60
2022-10-15T13:22:03.727Z,13.00
2022-10-15T13:24:45.701Z,15.40
2022-10-15T13:27:25.302Z,14.40
2022-10-15T13:30:00.143Z,15.10
2022-10-15T13:32:33.060Z,16.40
2022-10-15T13:35:11.141Z,18.50
2022-10-15T13:37:48.565Z,17.00
2022-10-15T13:40:24.194Z,15.50
2022-10-15T13:43:06.953Z,14.90
2022-10-15T13:45:37.574Z,16.70
2022-10-15T13:48:13.848Z,14.60
2022-10-15T13:50:48.175Z,13.90
2022-10-15T13:53:32.398Z,15.20
2022-10-15T13:56:05.499Z,13.30
2022-10-15T13:58:38.236Z,12.20
2022-10-15T14:01:15.824Z,14.00
2022-10-15T14:04:03.998Z,14.70
2022-10-15T14:06:39.926Z,14.90
2022-10-15T14:09:23.084Z,14.40
2022-10-15T14:11:59.205Z,16.70
2022-10-15T14:14:42.128Z,17.50
2022-10-15T14:17:22.570Z,14.50
2022-10-15T14:20:25.168Z,13.40
2022-10-15T14:22:49.286Z,12.30
2022-10-15T14:25:25.287Z,12.90
2022-10-15T14:27:55.711Z,12.40
2022-10-15T14:30:33.314Z,14.60
2022-10-15T14:33:01.536Z,11.40
2022-10-15T14:35:41.059Z,14.40
2022-10-15T14:38:11.795Z,12.80
2022-10-15T14:40:40.193Z,12.60
2022-10-15T14:43:18.332Z,15.30
2022-10-15T14:45:53.162Z,10.90
2022-10-15T14:48:35.434Z,14.00
2022-10-15T14:51:07.783Z,11.20
2022-10-15T14:53:39.796Z,12.10
2022-10-15T14:56:20.961Z,11.20
2022-10-15T14:58:56.971Z,11.10
2022-10-15T15:01:27.948Z,18.00
2022-10-15T15:03:57.497Z,12.80
2022-10-15T15:06:25.968Z,14.60
2022-10-15T15:08:58.000Z,17.00
2022-10-15T15:11:26.500Z,14.40
2022-10-15T15:13:57.705Z,13.40
2022-10-15T15:16:25.918Z,15.20
2022-10-15T15:18:54.567Z,17.00
2022-10-15T15:21:26.320Z,15.60
2022-10-15T15:23:54.686Z,20.80
2022-10-15T15:26:25.876Z,26.20
2022-10-15T15:28:55.342Z,24.10
2022-10-15T15:31:23.932Z,26.10
2022-10-15T15:33:52.054Z,29.90
2022-10-15T15:36:22.536Z,28.10
2022-10-15T15:38:52.146Z,28.80
2022-10-15T15:41:22.862Z,29.70
2022-10-15T15:43:51.692Z,23.60
2022-10-15T15:46:19.992Z,26.60
2022-10-15T15:48:49.689Z,25.30
2022-10-15T15:51:32.485Z,28.50
2022-10-15T15:54:05.180Z,31.50
2022-10-15T15:56:35.096Z,25.10
2022-10-15T15:59:03.948Z,28.30
2022-10-15T16:01:32.980Z,29.90
2022-10-15T16:04:02.183Z,29.10
2022-10-15T16:06:30.455Z,30.20
2022-10-15T16:09:02.562Z,26.30
2022-10-15T16:11:36.422Z,30.10
2022-10-15T16:14:09.199Z,34.20
2022-10-15T16:16:38.104Z,25.30
2022-10-15T16:19:08.712Z,25.30
2022-10-15T16:21:37.053Z,23.70
2022-10-15T16:24:07.837Z,25.30
2022-10-15T16:26:36.108Z,32.30
2022-10-15T16:29:04.411Z,26.90
2022-10-15T16:31:37.469Z,28.70
2022-10-15T16:34:06.066Z,29.10
2022-10-15T16:36:34.503Z,25.60
2022-10-15T16:39:04.608Z,23.50
2022-10-15T16:41:32.918Z,24.70
2022-10-15T16:44:01.107Z,29.00
2022-10-15T16:46:29.295Z,25.60
2022-10-15T16:48:59.035Z,29.40
2022-10-15T16:51:28.377Z,31.50
2022-10-15T16:53:59.205Z,26.60
2022-10-15T16:56:30.939Z,24.00
2022-10-15T16:58:58.952Z,26.10
2022-10-15T17:01:29.346Z,27.60
2022-10-15T17:04:00.678Z,26.30
2022-10-15T17:06:30.909Z,21.10
2022-10-15T17:09:05.194Z,29.90
2022-10-15T17:11:38.646Z,29.60
2022-10-15T17:14:09.320Z,27.20
2022-10-15T17:16:52.123Z,23.90
2022-10-15T17:19:30.349Z,27.40
2022-10-15T17:22:01.418Z,20.50
2022-10-15T17:24:29.695Z,19.20
2022-10-15T17:26:58.352Z,24.00
2022-10-15T17:29:30.576Z,21.90
2022-10-15T17:32:03.121Z,30.10
2022-10-15T17:34:32.069Z,27.10
2022-10-15T17:37:00.263Z,27.50
2022-10-15T17:39:31.599Z,30.40
2022-10-15T17:41:59.993Z,25.80
2022-10-15T17:44:30.172Z,30.30
2022-10-15T17:46:58.500Z,37.50
2022-10-15T17:49:29.749Z,32.80
2022-10-15T17:51:59.625Z,27.30
2022-10-15T17:54:28.511Z,25.60
2022-10-15T17:56:56.830Z,24.50
2022-10-15T17:59:25.557Z,25.90
2022-10-15T18:01:58.649Z,27.20
2022-10-15T18:04:31.293Z,26.60
2022-10-15T18:07:00.037Z,31.90
2022-10-15T18:09:28.501Z,31.20
2022-10-15T18:12:02.188Z,32.90
2022-10-15T18:14:35.368Z,33.80
2022-10-15T18:17:06.321Z,30.30
2022-10-15T18:19:34.526Z,38.50
2022-10-15T18:22:03.097Z,32.50
2022-10-15T18:24:31.324Z,33.60
2022-10-15T18:27:00.730Z,35.90
2022-10-15T18:29:30.762Z,35.50
2022-10-15T18:32:00.300Z,33.50
2022-10-15T18:34:33.852Z,31.50
2022-10-15T18:37:02.293Z,30.50
2022-10-15T18:39:30.661Z,34.50
2022-10-15T18:41:58.891Z,38.20
2022-10-15T18:44:29.390Z,31.40
2022-10-15T18:46:59.766Z,37.00
2022-10-15T18:49:27.781Z,33.50
2022-10-15T18:51:57.421Z,36.70
2022-10-15T18:54:36.772Z,35.00
2022-10-15T18:57:05.404Z,31.00
2022-10-15T18:59:33.619Z,36.20
2022-10-15T19:02:04.433Z,36.80
2022-10-15T19:04:36.957Z,38.10
2022-10-15T19:07:07.664Z,35.70
2022-10-15T19:09:36.140Z,36.60
2022-10-15T19:12:04.769Z,36.10
2022-10-15T19:14:34.010Z,42.30
2022-10-15T19:17:03.675Z,34.80
2022-10-15T19:19:32.161Z,34.80
2022-10-15T19:22:01.944Z,35.80
2022-10-15T19:24:30.229Z,36.20
2022-10-15T19:26:58.484Z,34.90
2022-10-15T19:29:29.282Z,34.10
2022-10-15T19:32:00.435Z,37.70
2022-10-15T19:34:28.804Z,35.10
2022-10-15T19:36:59.938Z,35.50
2022-10-15T19:39:33.019Z,37.40
2022-10-15T19:42:02.336Z,38.70
2022-10-15T19:44:30.770Z,46.00
2022-10-15T19:46:59.040Z,36.70
2022-10-15T19:49:27.874Z,34.10
2022-10-15T19:51:56.895Z,42.80
2022-10-15T19:56:53.869Z,34.90
2022-10-15T19:59:22.340Z,37.40
2022-10-15T20:01:50.614Z,35.20
2022-10-15T20:04:21.850Z,38.80
2022-10-15T20:06:52.947Z,34.40
2022-10-15T20:09:22.830Z,37.70
2022-10-15T20:11:51.389Z,39.10
2022-10-15T20:14:19.549Z,38.10
2022-10-15T20:16:47.740Z,37.40
2022-10-15T20:19:16.952Z,35.60
2022-10-15T20:21:45.624Z,40.80
2022-10-15T20:24:13.676Z,37.80
2022-10-15T20:26:44.120Z,32.00
2022-10-15T20:29:17.365Z,36.60
2022-10-15T20:31:45.493Z,37.00
2022-10-15T20:34:13.540Z,34.90
2022-10-15T20:36:42.221Z,43.90
2022-10-15T20:39:12.360Z,40.70
2022-10-15T20:41:40.990Z,40.10
2022-10-15T20:44:11.063Z,43.60
2022-10-15T20:47:02.718Z,36.90
2022-10-15T20:49:38.570Z,41.10
2022-10-15T20:52:07.947Z,38.10
2022-10-15T20:54:37.254Z,38.60
2022-10-15T20:57:06.599Z,39.30
2022-10-15T20:59:34.619Z,39.30
2022-10-15T21:02:02.707Z,37.40
2022-10-15T21:04:30.806Z,36.90
2022-10-15T21:07:00.033Z,33.40
2022-10-15T21:09:28.311Z,31.90
2022-10-15T21:11:56.382Z,37.90
2022-10-15T21:14:25.829Z,34.10
2022-10-15T21:16:53.782Z,32.00
2022-10-15T21:19:21.835Z,36.30
2022-10-15T21:21:49.942Z,37.60
2022-10-15T21:24:20.708Z,37.40
2022-10-15T21:26:48.891Z,36.80
2022-10-15T21:29:17.586Z,34.30
2022-10-15T21:31:45.749Z,34.20
2022-10-15T21:34:14.958Z,30.70
2022-10-15T21:36:44.109Z,36.60
2022-10-15T21:39:12.750Z,33.00
2022-10-15T21:41:44.441Z,35.60
2022-10-15T21:44:12.917Z,37.10
2022-10-15T21:46:41.618Z,33.60
2022-10-15T21:49:10.979Z,29.20
2022-10-15T21:51:39.177Z,27.10
2022-10-15T21:54:08.134Z,30.60
2022-10-15T21:56:37.590Z,28.80
2022-10-15T21:59:05.721Z,26.60
2022-10-15T22:01:37.884Z,27.90
2022-10-15T22:04:09.704Z,30.10
2022-10-15T22:06:40.219Z,29.30
2022-10-15T22:09:10.176Z,28.60
2022-10-15T22:11:40.150Z,33.40
2022-10-15T22:14:11.250Z,28.50
2022-10-15T22:16:41.246Z,38.00
2022-10-15T22:19:13.636Z,31.30
2022-10-15T22:21:42.988Z,32.00
2022-10-15T22:24:15.318Z,32.30
2022-10-15T22:26:50.276Z,32.30
2022-10-15T22:29:31.808Z,30.30
2022-10-15T22:32:03.578Z,33.40
2022-10-15T22:34:31.721Z,27.80
2022-10-15T22:36:59.919Z,35.30
2022-10-15T22:39:28.142Z,32.70
2022-10-15T22:41:58.513Z,36.80
2022-10-15T22:44:26.571Z,30.30
2022-10-15T22:46:54.867Z,33.60
2022-10-15T22:49:22.978Z,37.70
2022-10-15T22:51:51.756Z,31.20
2022-10-15T22:54:24.309Z,36.50
2022-10-15T22:56:52.468Z,29.30
2022-10-15T22:59:21.343Z,30.80
2022-10-15T23:01:49.727Z,36.40
2022-10-15T23:04:17.691Z,31.20
2022-10-15T23:06:46.087Z,35.10
2022-10-15T23:09:18.422Z,35.00
2022-10-15T23:11:46.925Z,28.00
2022-10-15T23:14:16.429Z,36.30
2022-10-15T23:16:48.346Z,29.40
2022-10-15T23:19:19.238Z,26.00
2022-10-15T23:21:51.506Z,33.00
2022-10-15T23:24:21.841Z,29.30
2022-10-15T23:26:49.923Z,33.70
2022-10-15T23:29:20.980Z,27.40
2022-10-15T23:31:50.490Z,30.80
2022-10-15T23:34:22.458Z,27.90
2022-10-15T23:36:51.584Z,30.10
2022-10-15T23:39:25.716Z,24.00
2022-10-15T23:41:55.258Z,30.00
2022-10-15T23:44:25.734Z,24.70
2022-10-15T23:46:54.801Z,31.00
2022-10-15T23:49:22.870Z,30.70
2022-10-15T23:51:51.344Z,28.80
2022-10-15T23:54:21.700Z,28.00
2022-10-15T23:56:49.855Z,28.60
2022-10-15T23:59:18.340Z,32.40
